sensor_id;sensor_type;location;lat;lon;timestamp;pressure;altitude;pressure_sealevel;temperature;humidity
11001;BME280;5553;48.506;8.870;2023-01-28T00:01:22;96956.19;;;-2.11;100.00
11001;BME280;5553;48.506;8.870;2023-01-28T00:03:50;96956.06;;;-2.09;100.00
11001;BME280;5553;48.506;8.870;2023-01-28T00:06:19;96965.25;;;-2.05;100.00
11001;BME280;5553;48.506;8.870;2023-01-28T00:08:47;96954.09;;;-2.06;100.00
11001;BME280;5553;48.506;8.870;2023-01-28T00:11:15;96958.97;;;-2.14;100.00
11001;BME280;5553;48.506;8.870;2023-01-28T00:13:44;96958.75;;;-2.11;100.00
11001;BME280;5553;48.506;8.870;2023-01-28T00:16:12;96954.00;;;-2.04;100.00
11001;BME280;5553;48.506;8.870;2023-01-28T00:18:43;96969.59;;;-2.06;100.00
11001;BME280;5553;48.506;8.870;2023-01-28T00:21:13;96955.97;;;-2.08;100.00
11001;BME280;5553;48.506;8.870;2023-01-28T00:23:44;96958.13;;;-2.15;100.00
11001;BME280;5553;48.506;8.870;2023-01-28T00:26:15;96959.28;;;-2.19;100.00
11001;BME280;5553;48.506;8.870;2023-01-28T00:28:43;96955.16;;;-2.08;100.00
11001;BME280;5553;48.506;8.870;2023-01-28T00:31:15;96959.81;;;-2.01;100.00
11001;BME280;5553;48.506;8.870;2023-01-28T00:33:47;96947.28;;;-2.07;100.00
11001;BME280;5553;48.506;8.870;2023-01-28T00:36:17;96951.09;;;-2.00;100.00
11001;BME280;5553;48.506;8.870;2023-01-28T00:38:49;96951.63;;;-2.07;100.00
11001;BME280;5553;48.506;8.870;2023-01-28T00:41:19;96946.88;;;-2.01;100.00
11001;BME280;5553;48.506;8.870;2023-01-28T00:43:48;96952.13;;;-2.02;100.00
11001;BME280;5553;48.506;8.870;2023-01-28T00:46:17;96946.97;;;-2.02;100.00
11001;BME280;5553;48.506;8.870;2023-01-28T00:48:49;96937.75;;;-2.06;100.00
11001;BME280;5553;48.506;8.870;2023-01-28T00:51:18;96947.28;;;-2.07;100.00
11001;BME280;5553;48.506;8.870;2023-01-28T00:53:47;96943.47;;;-2.01;100.00
11001;BME280;5553;48.506;8.870;2023-01-28T00:56:16;96944.88;;;-2.10;100.00
11001;BME280;5553;48.506;8.870;2023-01-28T00:58:45;96943.66;;;-2.04;100.00
11001;BME280;5553;48.506;8.870;2023-01-28T01:01:15;96939.63;;;-2.08;100.00
11001;BME280;5553;48.506;8.870;2023-01-28T01:03:44;96948.72;;;-2.03;100.00
11001;BME280;5553;48.506;8.870;2023-01-28T01:06:21;96940.25;;;-2.05;100.00
11001;BME280;5553;48.506;8.870;2023-01-28T01:08:49;96949.47;;;-2.01;100.00
11001;BME280;5553;48.506;8.870;2023-01-28T01:11:18;96944.69;;;-2.07;100.00
11001;BME280;5553;48.506;8.870;2023-01-28T01:13:49;96950.38;;;-2.02;100.00
11001;BME280;5553;48.506;8.870;2023-01-28T01:16:20;96947.69;;;-2.00;100.00
11001;BME280;5553;48.506;8.870;2023-01-28T01:18:50;96946.13;;;-2.03;100.00
11001;BME280;5553;48.506;8.870;2023-01-28T01:21:23;96945.09;;;-2.00;100.00
11001;BME280;5553;48.506;8.870;2023-01-28T01:23:52;96943.13;;;-2.09;100.00
11001;BME280;5553;48.506;8.870;2023-01-28T01:26:20;96946.66;;;-1.98;100.00
11001;BME280;5553;48.506;8.870;2023-01-28T01:28:49;96938.06;;;-2.11;100.00
11001;BME280;5553;48.506;8.870;2023-01-28T01:31:19;96945.22;;;-2.15;100.00
11001;BME280;5553;48.506;8.870;2023-01-28T01:33:49;96948.91;;;-2.06;100.00
11001;BME280;5553;48.506;8.870;2023-01-28T01:36:21;96950.38;;;-2.15;100.00
11001;BME280;5553;48.506;8.870;2023-01-28T01:38:52;96960.41;;;-2.10;100.00
11001;BME280;5553;48.506;8.870;2023-01-28T01:41:26;96958.13;;;-2.02;100.00
11001;BME280;5553;48.506;8.870;2023-01-28T01:43:57;96954.31;;;-1.96;100.00
11001;BME280;5553;48.506;8.870;2023-01-28T01:46:32;96948.22;;;-2.08;100.00
11001;BME280;5553;48.506;8.870;2023-01-28T01:49:06;96947.47;;;-2.10;100.00
11001;BME280;5553;48.506;8.870;2023-01-28T01:51:42;96943.25;;;-2.11;100.00
11001;BME280;5553;48.506;8.870;2023-01-28T01:54:12;96945.84;;;-2.11;100.00
11001;BME280;5553;48.506;8.870;2023-01-28T01:56:42;96950.81;;;-2.08;100.00
11001;BME280;5553;48.506;8.870;2023-01-28T01:59:15;96949.97;;;-2.08;100.00
11001;BME280;5553;48.506;8.870;2023-01-28T02:01:45;96952.44;;;-2.07;100.00
11001;BME280;5553;48.506;8.870;2023-01-28T02:04:17;96950.06;;;-2.10;100.00
11001;BME280;5553;48.506;8.870;2023-01-28T02:06:49;96953.47;;;-2.09;100.00
11001;BME280;5553;48.506;8.870;2023-01-28T02:09:25;96954.91;;;-2.05;100.00
11001;BME280;5553;48.506;8.870;2023-01-28T02:11:54;96956.69;;;-2.06;100.00
11001;BME280;5553;48.506;8.870;2023-01-28T02:14:26;96971.06;;;-2.02;100.00
11001;BME280;5553;48.506;8.870;2023-01-28T02:16:55;96962.38;;;-2.01;100.00
11001;BME280;5553;48.506;8.870;2023-01-28T02:19:26;96968.38;;;-2.13;100.00
11001;BME280;5553;48.506;8.870;2023-01-28T02:22:29;96957.81;;;-2.10;100.00
11001;BME280;5553;48.506;8.870;2023-01-28T02:28:44;96963.94;;;-2.11;100.00
11001;BME280;5553;48.506;8.870;2023-01-28T02:31:19;96970.56;;;-2.07;100.00
11001;BME280;5553;48.506;8.870;2023-01-28T02:33:55;96969.53;;;-2.04;100.00
11001;BME280;5553;48.506;8.870;2023-01-28T02:36:31;96970.44;;;-2.05;100.00
11001;BME280;5553;48.506;8.870;2023-01-28T02:39:04;96962.78;;;-2.07;100.00
11001;BME280;5553;48.506;8.870;2023-01-28T02:41:39;96960.94;;;-2.05;100.00
11001;BME280;5553;48.506;8.870;2023-01-28T02:44:11;96969.41;;;-2.03;100.00
11001;BME280;5553;48.506;8.870;2023-01-28T02:46:39;96965.06;;;-2.02;100.00
11001;BME280;5553;48.506;8.870;2023-01-28T02:49:24;96972.09;;;-1.92;100.00
11001;BME280;5553;48.506;8.870;2023-01-28T02:52:21;96965.69;;;-1.99;100.00
11001;BME280;5553;48.506;8.870;2023-01-28T02:55:18;96966.94;;;-2.04;100.00
11001;BME280;5553;48.506;8.870;2023-01-28T02:57:53;96970.44;;;-1.93;100.00
11001;BME280;5553;48.506;8.870;2023-01-28T03:00:32;96979.84;;;-1.92;100.00
11001;BME280;5553;48.506;8.870;2023-01-28T03:03:12;96975.00;;;-1.96;100.00
11001;BME280;5553;48.506;8.870;2023-01-28T03:05:45;96977.16;;;-2.03;100.00
11001;BME280;5553;48.506;8.870;2023-01-28T03:08:34;96970.84;;;-1.99;100.00
11001;BME280;5553;48.506;8.870;2023-01-28T03:11:16;96983.38;;;-1.93;100.00
11001;BME280;5553;48.506;8.870;2023-01-28T03:13:57;96977.72;;;-1.98;100.00
11001;BME280;5553;48.506;8.870;2023-01-28T03:16:41;96984.53;;;-1.97;100.00
11001;BME280;5553;48.506;8.870;2023-01-28T03:19:22;96978.00;;;-2.02;100.00
11001;BME280;5553;48.506;8.870;2023-01-28T03:22:04;96976.94;;;-2.12;100.00
11001;BME280;5553;48.506;8.870;2023-01-28T03:24:47;96971.78;;;-2.00;100.00
11001;BME280;5553;48.506;8.870;2023-01-28T03:27:32;96981.13;;;-1.97;100.00
11001;BME280;5553;48.506;8.870;2023-01-28T03:30:21;96982.88;;;-1.98;100.00
11001;BME280;5553;48.506;8.870;2023-01-28T03:33:06;96982.53;;;-2.06;100.00
11001;BME280;5553;48.506;8.870;2023-01-28T03:35:48;96983.16;;;-2.02;100.00
11001;BME280;5553;48.506;8.870;2023-01-28T03:38:29;96985.34;;;-1.96;100.00
11001;BME280;5553;48.506;8.870;2023-01-28T03:41:08;96979.56;;;-2.00;100.00
11001;BME280;5553;48.506;8.870;2023-01-28T03:43:36;96994.66;;;-1.94;100.00
11001;BME280;5553;48.506;8.870;2023-01-28T03:46:05;96984.63;;;-1.98;100.00
11001;BME280;5553;48.506;8.870;2023-01-28T03:48:36;96990.00;;;-2.01;100.00
11001;BME280;5553;48.506;8.870;2023-01-28T03:51:04;96983.38;;;-1.93;100.00
11001;BME280;5553;48.506;8.870;2023-01-28T03:53:33;96990.13;;;-1.90;100.00
11001;BME280;5553;48.506;8.870;2023-01-28T03:56:01;96999.63;;;-1.91;100.00
11001;BME280;5553;48.506;8.870;2023-01-28T03:58:29;96997.69;;;-1.87;100.00
11001;BME280;5553;48.506;8.870;2023-01-28T04:01:10;96994.97;;;-1.98;100.00
11001;BME280;5553;48.506;8.870;2023-01-28T04:03:41;96995.91;;;-1.86;100.00
11001;BME280;5553;48.506;8.870;2023-01-28T04:06:09;97001.81;;;-1.97;100.00
11001;BME280;5553;48.506;8.870;2023-01-28T04:08:37;96999.63;;;-1.91;100.00
11001;BME280;5553;48.506;8.870;2023-01-28T04:11:13;96998.31;;;-1.83;100.00
11001;BME280;5553;48.506;8.870;2023-01-28T04:13:46;96996.94;;;-1.89;100.00
11001;BME280;5553;48.506;8.870;2023-01-28T04:16:17;97005.22;;;-1.97;100.00
11001;BME280;5553;48.506;8.870;2023-01-28T04:18:47;97003.13;;;-1.92;100.00
11001;BME280;5553;48.506;8.870;2023-01-28T04:21:16;97002.72;;;-1.85;100.00
11001;BME280;5553;48.506;8.870;2023-01-28T04:23:44;97002.13;;;-1.76;100.00
11001;BME280;5553;48.506;8.870;2023-01-28T04:26:13;96998.91;;;-1.80;100.00
11001;BME280;5553;48.506;8.870;2023-01-28T04:28:41;97010.91;;;-1.79;100.00
11001;BME280;5553;48.506;8.870;2023-01-28T04:31:09;97009.34;;;-1.81;100.00
11001;BME280;5553;48.506;8.870;2023-01-28T04:33:37;97014.66;;;-1.83;100.00
11001;BME280;5553;48.506;8.870;2023-01-28T04:36:08;97019.06;;;-1.85;100.00
11001;BME280;5553;48.506;8.870;2023-01-28T04:38:37;97019.69;;;-1.81;100.00
11001;BME280;5553;48.506;8.870;2023-01-28T04:41:05;97020.75;;;-1.84;100.00
11001;BME280;5553;48.506;8.870;2023-01-28T04:43:33;97028.00;;;-1.76;100.00
11001;BME280;5553;48.506;8.870;2023-01-28T04:46:01;97028.59;;;-1.85;100.00
11001;BME280;5553;48.506;8.870;2023-01-28T04:48:30;97036.38;;;-1.85;100.00
11001;BME280;5553;48.506;8.870;2023-01-28T04:50:59;97035.44;;;-1.84;100.00
11001;BME280;5553;48.506;8.870;2023-01-28T04:53:30;97031.72;;;-1.80;100.00
11001;BME280;5553;48.506;8.870;2023-01-28T04:55:59;97042.06;;;-1.80;100.00
11001;BME280;5553;48.506;8.870;2023-01-28T04:58:27;97044.13;;;-1.85;100.00
11001;BME280;5553;48.506;8.870;2023-01-28T05:00:56;97038.88;;;-1.84;100.00
11001;BME280;5553;48.506;8.870;2023-01-28T05:03:25;97040.94;;;-1.76;100.00
11001;BME280;5553;48.506;8.870;2023-01-28T05:05:53;97037.59;;;-1.78;100.00
11001;BME280;5553;48.506;8.870;2023-01-28T05:08:21;97047.44;;;-1.83;100.00
11001;BME280;5553;48.506;8.870;2023-01-28T05:10:52;97045.81;;;-1.84;100.00
11001;BME280;5553;48.506;8.870;2023-01-28T05:13:20;97046.63;;;-1.84;100.00
11001;BME280;5553;48.506;8.870;2023-01-28T05:15:50;97037.41;;;-1.75;100.00
11001;BME280;5553;48.506;8.870;2023-01-28T05:18:19;97042.28;;;-1.83;100.00
11001;BME280;5553;48.506;8.870;2023-01-28T05:20:48;97046.91;;;-1.88;100.00
11001;BME280;5553;48.506;8.870;2023-01-28T05:23:16;97046.81;;;-1.87;100.00
11001;BME280;5553;48.506;8.870;2023-01-28T05:25:44;97053.34;;;-1.81;100.00
11001;BME280;5553;48.506;8.870;2023-01-28T05:28:15;97039.16;;;-1.88;100.00
11001;BME280;5553;48.506;8.870;2023-01-28T05:30:43;97048.28;;;-1.83;100.00
11001;BME280;5553;48.506;8.870;2023-01-28T05:33:11;97052.41;;;-1.93;100.00
11001;BME280;5553;48.506;8.870;2023-01-28T05:35:41;97044.88;;;-1.83;100.00
11001;BME280;5553;48.506;8.870;2023-01-28T05:38:09;97052.31;;;-1.79;100.00
11001;BME280;5553;48.506;8.870;2023-01-28T05:40:37;97049.91;;;-1.82;100.00
11001;BME280;5553;48.506;8.870;2023-01-28T05:43:06;97049.91;;;-1.82;100.00
11001;BME280;5553;48.506;8.870;2023-01-28T05:45:37;97045.81;;;-1.84;100.00
11001;BME280;5553;48.506;8.870;2023-01-28T05:48:05;97048.81;;;-1.78;100.00
11001;BME280;5553;48.506;8.870;2023-01-28T05:50:33;97052.63;;;-1.83;100.00
11001;BME280;5553;48.506;8.870;2023-01-28T05:53:04;97058.50;;;-1.81;100.00
11001;BME280;5553;48.506;8.870;2023-01-28T05:55:32;97059.44;;;-1.82;100.00
11001;BME280;5553;48.506;8.870;2023-01-28T05:58:01;97064.22;;;-1.76;100.00
11001;BME280;5553;48.506;8.870;2023-01-28T06:00:29;97065.44;;;-1.82;100.00
11001;BME280;5553;48.506;8.870;2023-01-28T06:03:00;97059.66;;;-1.73;100.00
11001;BME280;5553;48.506;8.870;2023-01-28T06:05:28;97054.19;;;-1.81;100.00
11001;BME280;5553;48.506;8.870;2023-01-28T06:07:56;97065.63;;;-1.85;100.00
11001;BME280;5553;48.506;8.870;2023-01-28T06:10:24;97070.63;;;-1.82;100.00
11001;BME280;5553;48.506;8.870;2023-01-28T06:12:53;97073.31;;;-1.83;100.00
11001;BME280;5553;48.506;8.870;2023-01-28T06:15:21;97082.66;;;-1.81;100.00
11001;BME280;5553;48.506;8.870;2023-01-28T06:17:49;97077.66;;;-1.84;100.00
11001;BME280;5553;48.506;8.870;2023-01-28T06:20:20;97084.38;;;-1.81;100.00
11001;BME280;5553;48.506;8.870;2023-01-28T06:22:49;97087.38;;;-1.87;100.00
11001;BME280;5553;48.506;8.870;2023-01-28T06:25:18;97087.69;;;-1.79;100.00
11001;BME280;5553;48.506;8.870;2023-01-28T06:27:46;97091.63;;;-1.86;100.00
11001;BME280;5553;48.506;8.870;2023-01-28T06:30:15;97096.47;;;-1.82;100.00
11001;BME280;5553;48.506;8.870;2023-01-28T06:32:45;97100.63;;;-1.79;100.00
11001;BME280;5553;48.506;8.870;2023-01-28T06:35:13;97102.72;;;-1.84;100.00
11001;BME280;5553;48.506;8.870;2023-01-28T06:37:44;97108.41;;;-1.79;100.00
11001;BME280;5553;48.506;8.870;2023-01-28T06:40:12;97108.31;;;-1.78;100.00
11001;BME280;5553;48.506;8.870;2023-01-28T06:42:41;97117.28;;;-1.83;100.00
11001;BME280;5553;48.506;8.870;2023-01-28T06:45:10;97119.69;;;-1.80;100.00
11001;BME280;5553;48.506;8.870;2023-01-28T06:47:38;97122.59;;;-1.72;100.00
11001;BME280;5553;48.506;8.870;2023-01-28T06:50:07;97115.13;;;-1.77;100.00
11001;BME280;5553;48.506;8.870;2023-01-28T06:52:36;97123.34;;;-1.70;100.00
11001;BME280;5553;48.506;8.870;2023-01-28T06:55:08;97125.19;;;-1.72;100.00
11001;BME280;5553;48.506;8.870;2023-01-28T06:57:37;97120.75;;;-1.70;100.00
11001;BME280;5553;48.506;8.870;2023-01-28T07:00:08;97120.94;;;-1.73;100.00
11001;BME280;5553;48.506;8.870;2023-01-28T07:02:38;97133.97;;;-1.75;100.00
11001;BME280;5553;48.506;8.870;2023-01-28T07:05:07;97130.56;;;-1.75;100.00
11001;BME280;5553;48.506;8.870;2023-01-28T07:07:35;97142.47;;;-1.73;100.00
11001;BME280;5553;48.506;8.870;2023-01-28T07:10:08;97132.75;;;-1.69;100.00
11001;BME280;5553;48.506;8.870;2023-01-28T07:12:36;97135.91;;;-1.78;100.00
11001;BME280;5553;48.506;8.870;2023-01-28T07:15:06;97131.09;;;-1.70;100.00
11001;BME280;5553;48.506;8.870;2023-01-28T07:17:35;97130.97;;;-1.69;100.00
11001;BME280;5553;48.506;8.870;2023-01-28T07:20:04;97133.22;;;-1.24;100.00
11001;BME280;5553;48.506;8.870;2023-01-28T07:22:33;97142.31;;;2.63;100.00
11001;BME280;5553;48.506;8.870;2023-01-28T07:25:02;97125.06;;;1.43;100.00
11001;BME280;5553;48.506;8.870;2023-01-28T07:27:33;97116.91;;;3.38;100.00
11001;BME280;5553;48.506;8.870;2023-01-28T07:30:02;97081.97;;;1.07;100.00
11001;BME280;5553;48.506;8.870;2023-01-28T07:32:30;97080.53;;;-0.74;100.00
11001;BME280;5553;48.506;8.870;2023-01-28T07:34:58;97092.91;;;-1.03;100.00
11001;BME280;5553;48.506;8.870;2023-01-28T07:37:27;97102.75;;;-1.21;100.00
11001;BME280;5553;48.506;8.870;2023-01-28T07:39:55;97103.47;;;-1.31;100.00
11001;BME280;5553;48.506;8.870;2023-01-28T07:42:23;97112.06;;;-1.31;100.00
11001;BME280;5553;48.506;8.870;2023-01-28T07:44:54;97114.78;;;-1.32;100.00
11001;BME280;5553;48.506;8.870;2023-01-28T07:47:22;97119.75;;;-1.29;100.00
11001;BME280;5553;48.506;8.870;2023-01-28T07:49:50;97120.59;;;-1.29;100.00
11001;BME280;5553;48.506;8.870;2023-01-28T07:52:19;97127.59;;;-1.31;100.00
11001;BME280;5553;48.506;8.870;2023-01-28T07:54:47;97133.31;;;-1.38;100.00
11001;BME280;5553;48.506;8.870;2023-01-28T07:57:15;97132.38;;;-1.25;100.00
11001;BME280;5553;48.506;8.870;2023-01-28T07:59:47;97147.50;;;-1.31;100.00
11001;BME280;5553;48.506;8.870;2023-01-28T08:02:18;97146.34;;;-1.27;100.00
11001;BME280;5553;48.506;8.870;2023-01-28T08:04:46;97146.78;;;-1.33;100.00
11001;BME280;5553;48.506;8.870;2023-01-28T08:07:14;97148.63;;;-1.35;100.00
11001;BME280;5553;48.506;8.870;2023-01-28T08:09:43;97145.13;;;-1.34;100.00
11001;BME280;5553;48.506;8.870;2023-01-28T08:12:11;97163.66;;;-1.28;100.00
11001;BME280;5553;48.506;8.870;2023-01-28T08:14:39;97158.47;;;-1.28;100.00
11001;BME280;5553;48.506;8.870;2023-01-28T08:17:07;97166.66;;;-1.21;100.00
11001;BME280;5553;48.506;8.870;2023-01-28T08:19:38;97166.88;;;-1.24;100.00
11001;BME280;5553;48.506;8.870;2023-01-28T08:22:07;97171.75;;;-1.20;100.00
11001;BME280;5553;48.506;8.870;2023-01-28T08:24:35;97163.88;;;-1.18;100.00
11001;BME280;5553;48.506;8.870;2023-01-28T08:27:03;97161.16;;;-1.16;100.00
11001;BME280;5553;48.506;8.870;2023-01-28T08:29:31;97159.53;;;-1.17;100.00
11001;BME280;5553;48.506;8.870;2023-01-28T08:32:00;97170.31;;;-1.11;100.00
11001;BME280;5553;48.506;8.870;2023-01-28T08:34:28;97172.91;;;-1.11;100.00
11001;BME280;5553;48.506;8.870;2023-01-28T08:36:59;97168.44;;;-1.09;100.00
11001;BME280;5553;48.506;8.870;2023-01-28T08:39:29;97174.53;;;-1.10;100.00
11001;BME280;5553;48.506;8.870;2023-01-28T08:41:58;97161.59;;;-1.10;100.00
11001;BME280;5553;48.506;8.870;2023-01-28T08:44:26;97171.13;;;-1.10;100.00
11001;BME280;5553;48.506;8.870;2023-01-28T08:46:54;97175.69;;;-1.14;100.00
11001;BME280;5553;48.506;8.870;2023-01-28T08:49:23;97171.13;;;-1.10;100.00
11001;BME280;5553;48.506;8.870;2023-01-28T08:51:51;97177.47;;;-1.02;100.00
11001;BME280;5553;48.506;8.870;2023-01-28T08:54:22;97177.97;;;-0.97;100.00
11001;BME280;5553;48.506;8.870;2023-01-28T08:56:50;97180.06;;;-1.02;100.00
11001;BME280;5553;48.506;8.870;2023-01-28T08:59:19;97181.72;;;-0.88;100.00
11001;BME280;5553;48.506;8.870;2023-01-28T09:01:47;97178.50;;;-0.91;100.00
11001;BME280;5553;48.506;8.870;2023-01-28T09:04:15;97172.59;;;-0.93;100.00
11001;BME280;5553;48.506;8.870;2023-01-28T09:06:43;97174.56;;;-0.84;100.00
11001;BME280;5553;48.506;8.870;2023-01-28T09:09:11;97180.56;;;-0.84;100.00
11001;BME280;5553;48.506;8.870;2023-01-28T09:11:42;97185.03;;;-0.99;100.00
11001;BME280;5553;48.506;8.870;2023-01-28T09:14:11;97179.22;;;-0.89;100.00
11001;BME280;5553;48.506;8.870;2023-01-28T09:16:39;97187.84;;;-0.89;100.00
11001;BME280;5553;48.506;8.870;2023-01-28T09:19:07;97185.94;;;-0.87;100.00
11001;BME280;5553;48.506;8.870;2023-01-28T09:21:37;97188.97;;;-0.80;100.00
11001;BME280;5553;48.506;8.870;2023-01-28T09:24:09;97184.38;;;-0.64;100.00
11001;BME280;5553;48.506;8.870;2023-01-28T09:26:38;97187.81;;;-0.63;100.00
11001;BME280;5553;48.506;8.870;2023-01-28T09:29:08;97188.75;;;-0.77;100.00
11001;BME280;5553;48.506;8.870;2023-01-28T09:31:37;97187.91;;;-0.65;100.00
11001;BME280;5553;48.506;8.870;2023-01-28T09:34:05;97182.50;;;-0.62;100.00
11001;BME280;5553;48.506;8.870;2023-01-28T09:36:33;97190.19;;;-0.60;100.00
11001;BME280;5553;48.506;8.870;2023-01-28T09:39:02;97188.41;;;-0.60;100.00
11001;BME280;5553;48.506;8.870;2023-01-28T09:41:40;97193.06;;;-0.39;100.00
11001;BME280;5553;48.506;8.870;2023-01-28T09:44:27;97195.16;;;-0.44;100.00
11001;BME280;5553;48.506;8.870;2023-01-28T09:47:03;97202.19;;;-0.46;100.00
11001;BME280;5553;48.506;8.870;2023-01-28T09:49:36;97195.97;;;-0.44;100.00
11001;BME280;5553;48.506;8.870;2023-01-28T09:52:12;97196.41;;;-0.50;100.00
11001;BME280;5553;48.506;8.870;2023-01-28T09:54:44;97200.63;;;-0.49;100.00
11001;BME280;5553;48.506;8.870;2023-01-28T09:57:19;97191.81;;;-0.46;100.00
11001;BME280;5553;48.506;8.870;2023-01-28T09:59:51;97194.22;;;-0.43;100.00
11001;BME280;5553;48.506;8.870;2023-01-28T10:02:29;97202.47;;;-0.26;100.00
11001;BME280;5553;48.506;8.870;2023-01-28T10:05:11;97210.78;;;-0.33;100.00
11001;BME280;5553;48.506;8.870;2023-01-28T10:07:53;97205.66;;;-0.22;100.00
11001;BME280;5553;48.506;8.870;2023-01-28T10:10:29;97198.97;;;-0.01;100.00
11001;BME280;5553;48.506;8.870;2023-01-28T10:13:23;97196.28;;;0.01;100.00
11001;BME280;5553;48.506;8.870;2023-01-28T10:16:06;97191.97;;;0.13;100.00
11001;BME280;5553;48.506;8.870;2023-01-28T10:18:42;97182.00;;;0.07;100.00
11001;BME280;5553;48.506;8.870;2023-01-28T10:21:16;97183.09;;;0.04;100.00
11001;BME280;5553;48.506;8.870;2023-01-28T10:23:53;97185.13;;;0.12;100.00
11001;BME280;5553;48.506;8.870;2023-01-28T10:26:24;97178.50;;;0.08;100.00
11001;BME280;5553;48.506;8.870;2023-01-28T10:28:55;97176.47;;;0.24;100.00
11001;BME280;5553;48.506;8.870;2023-01-28T10:31:30;97180.09;;;0.45;100.00
11001;BME280;5553;48.506;8.870;2023-01-28T10:34:00;97180.06;;;0.34;100.00
11001;BME280;5553;48.506;8.870;2023-01-28T10:36:29;97166.16;;;0.46;100.00
11001;BME280;5553;48.506;8.870;2023-01-28T10:38:57;97159.66;;;0.17;100.00
11001;BME280;5553;48.506;8.870;2023-01-28T10:41:26;97161.16;;;0.32;100.00
11001;BME280;5553;48.506;8.870;2023-01-28T10:43:55;97162.38;;;0.15;100.00
11001;BME280;5553;48.506;8.870;2023-01-28T10:46:31;97160.19;;;0.33;100.00
11001;BME280;5553;48.506;8.870;2023-01-28T10:49:05;97166.16;;;0.46;100.00
11001;BME280;5553;48.506;8.870;2023-01-28T10:51:40;97162.78;;;0.33;100.00
11001;BME280;5553;48.506;8.870;2023-01-28T10:54:19;97161.50;;;0.28;100.00
11001;BME280;5553;48.506;8.870;2023-01-28T10:56:51;97152.75;;;0.29;100.00
11001;BME280;5553;48.506;8.870;2023-01-28T10:59:24;97158.72;;;0.42;100.00
11001;BME280;5553;48.506;8.870;2023-01-28T11:01:57;97153.69;;;0.52;100.00
11001;BME280;5553;48.506;8.870;2023-01-28T11:04:29;97160.53;;;0.64;100.00
11001;BME280;5553;48.506;8.870;2023-01-28T11:07:00;97157.94;;;0.64;100.00
11001;BME280;5553;48.506;8.870;2023-01-28T11:09:30;97161.19;;;0.43;100.00
11001;BME280;5553;48.506;8.870;2023-01-28T11:12:10;97159.88;;;0.38;100.00
11001;BME280;5553;48.506;8.870;2023-01-28T11:14:48;97159.50;;;0.31;100.00
11001;BME280;5553;48.506;8.870;2023-01-28T11:17:21;97151.56;;;0.21;100.00
11001;BME280;5553;48.506;8.870;2023-01-28T11:19:51;97141.38;;;0.42;100.00
11001;BME280;5553;48.506;8.870;2023-01-28T11:22:25;97145.69;;;0.66;100.00
11001;BME280;5553;48.506;8.870;2023-01-28T11:24:59;97141.72;;;0.38;100.00
11001;BME280;5553;48.506;8.870;2023-01-28T11:27:29;97136.75;;;0.46;100.00
11001;BME280;5553;48.506;8.870;2023-01-28T11:29:59;97144.72;;;0.56;100.00
11001;BME280;5553;48.506;8.870;2023-01-28T11:32:32;97145.38;;;0.46;100.00
11001;BME280;5553;48.506;8.870;2023-01-28T11:35:00;97140.19;;;0.46;100.00
11001;BME280;5553;48.506;8.870;2023-01-28T11:37:29;97152.97;;;0.61;100.00
11001;BME280;5553;48.506;8.870;2023-01-28T11:40:12;97144.75;;;0.32;100.00
11001;BME280;5553;48.506;8.870;2023-01-28T11:42:44;97142.22;;;0.54;100.00
11001;BME280;5553;48.506;8.870;2023-01-28T11:45:15;97145.63;;;0.55;100.00
11001;BME280;5553;48.506;8.870;2023-01-28T11:47:56;97143.59;;;0.93;100.00
11001;BME280;5553;48.506;8.870;2023-01-28T11:50:38;97136.50;;;0.38;100.00
11001;BME280;5553;48.506;8.870;2023-01-28T11:53:20;97148.38;;;0.29;100.00
11001;BME280;5553;48.506;8.870;2023-01-28T11:56:07;97159.97;;;0.36;100.00
11001;BME280;5553;48.506;8.870;2023-01-28T11:58:45;97144.81;;;0.19;100.00
11001;BME280;5553;48.506;8.870;2023-01-28T12:01:21;97139.50;;;0.20;100.00
11001;BME280;5553;48.506;8.870;2023-01-28T12:04:16;97140.44;;;0.19;100.00
11001;BME280;5553;48.506;8.870;2023-01-28T12:07:00;97135.16;;;0.21;100.00
11001;BME280;5553;48.506;8.870;2023-01-28T12:09:34;97148.13;;;0.21;100.00
11001;BME280;5553;48.506;8.870;2023-01-28T12:12:20;97146.22;;;0.23;100.00
11001;BME280;5553;48.506;8.870;2023-01-28T12:15:04;97154.63;;;0.27;100.00
11001;BME280;5553;48.506;8.870;2023-01-28T12:17:42;97160.03;;;0.23;100.00
11001;BME280;5553;48.506;8.870;2023-01-28T12:20:20;97155.41;;;0.51;100.00
11001;BME280;5553;48.506;8.870;2023-01-28T12:22:58;97168.88;;;0.45;100.00
11001;BME280;5553;48.506;8.870;2023-01-28T12:25:38;97162.59;;;0.47;100.00
11001;BME280;5553;48.506;8.870;2023-01-28T12:28:18;97154.53;;;0.28;100.00
11001;BME280;5553;48.506;8.870;2023-01-28T12:31:06;97154.03;;;0.23;100.00
11001;BME280;5553;48.506;8.870;2023-01-28T12:33:51;97157.06;;;0.17;100.00
11001;BME280;5553;48.506;8.870;2023-01-28T12:36:46;97153.72;;;0.28;100.00
11001;BME280;5553;48.506;8.870;2023-01-28T12:39:25;97163.13;;;0.29;100.00
11001;BME280;5553;48.506;8.870;2023-01-28T12:42:03;97159.38;;;0.33;100.00
11001;BME280;5553;48.506;8.870;2023-01-28T12:44:38;97157.78;;;0.19;100.00
11001;BME280;5553;48.506;8.870;2023-01-28T12:47:12;97167.94;;;0.22;100.00
11001;BME280;5553;48.506;8.870;2023-01-28T12:49:46;97162.94;;;0.08;100.00
11001;BME280;5553;48.506;8.870;2023-01-28T12:52:22;97165.97;;;0.02;100.00
11001;BME280;5553;48.506;8.870;2023-01-28T12:54:56;97165.75;;;0.05;100.00
11001;BME280;5553;48.506;8.870;2023-01-28T12:57:28;97175.94;;;-0.05;100.00
11001;BME280;5553;48.506;8.870;2023-01-28T13:00:20;97173.56;;;-0.08;100.00
11001;BME280;5553;48.506;8.870;2023-01-28T13:02:56;97175.72;;;-0.02;100.00
11001;BME280;5553;48.506;8.870;2023-01-28T13:05:33;97168.72;;;-0.13;100.00
11001;BME280;5553;48.506;8.870;2023-01-28T13:08:10;97167.69;;;-0.10;100.00
11001;BME280;5553;48.506;8.870;2023-01-28T13:10:43;97174.19;;;-0.05;100.00
11001;BME280;5553;48.506;8.870;2023-01-28T13:13:15;97174.22;;;0.07;100.00
11001;BME280;5553;48.506;8.870;2023-01-28T13:15:45;97175.09;;;0.07;100.00
11001;BME280;5553;48.506;8.870;2023-01-28T13:18:31;97181.09;;;0.08;100.00
11001;BME280;5553;48.506;8.870;2023-01-28T13:21:01;97179.88;;;0.01;100.00
11001;BME280;5553;48.506;8.870;2023-01-28T13:23:41;97182.56;;;-0.01;100.00
11001;BME280;5553;48.506;8.870;2023-01-28T13:26:29;97178.94;;;0.02;100.00
11001;BME280;5553;48.506;8.870;2023-01-28T13:29:15;97182.34;;;0.02;100.00
11001;BME280;5553;48.506;8.870;2023-01-28T13:31:47;97179.28;;;-0.03;100.00
11001;BME280;5553;48.506;8.870;2023-01-28T13:34:28;97176.56;;;-0.02;100.00